Time;durP1;ratioP1;P1;durP2;ratioP2;P2;SDS_P1;SDS_P2;PMS_P1;PMS_P2;Temp;Humidity;BMP_temperature;BMP_pressure;BME280_temperature;BME280_humidity;BME280_pressure;Samples;Min_cycle;Max_cycle;Signal;HPM_P1;HPM_P2
2022/03/30 00:01:53;;;;;;;;;;;6.10;99.90;;;;;;2121168;67;20213;-78
2022/03/30 00:04:40;;;;;;;;;;;6.10;99.80;;;;;;2137009;67;20618;-77
2022/03/30 00:07:21;;;;;;;;;;;6.00;99.60;;;;;;2123646;67;20174;-78
2022/03/30 00:10:09;;;;;;;;;;;6.10;99.80;;;;;;2121387;67;20423;-79
2022/03/30 00:12:51;;;;;;;;;;;6.10;99.80;;;;;;2120930;67;20785;-79
2022/03/30 00:15:32;;;;;;;;;;;6.10;99.90;;;;;;2114006;67;20503;-78
2022/03/30 00:18:14;;;;;;;;;;;6.10;99.90;;;;;;2118392;67;21466;-77
2022/03/30 00:20:56;;;;;;;;;;;6.10;99.90;;;;;;2120506;67;20598;-78
2022/03/30 00:23:40;;;;;;;;;;;6.10;99.90;;;;;;2135123;66;20052;-78
2022/03/30 00:26:21;;;;;;;;;;;6.10;99.90;;;;;;2140713;66;20217;-77
2022/03/30 00:29:05;;;;;;;;;;;6.10;99.90;;;;;;2141184;66;20185;-79
2022/03/30 00:31:50;;;;;;;;;;;6.10;99.90;;;;;;2135854;67;20140;-77
2022/03/30 00:34:34;;;;;;;;;;;6.10;99.90;;;;;;2141481;66;20570;-77
2022/03/30 00:37:16;;;;;;;;;;;6.30;99.90;;;;;;2147780;66;20077;-77
2022/03/30 00:39:59;;;;;;;;;;;6.00;99.90;;;;;;2151398;66;20065;-78
2022/03/30 00:42:43;;;;;;;;;;;6.70;99.90;;;;;;2147464;66;20047;-78
2022/03/30 00:45:24;;;;;;;;;;;5.90;99.90;;;;;;2147964;66;20192;-78
2022/03/30 00:48:06;;;;;;;;;;;5.70;99.90;;;;;;2177850;65;20537;-78
2022/03/30 00:50:48;;;;;;;;;;;5.80;99.90;;;;;;2161302;66;20165;-77
2022/03/30 00:53:33;;;;;;;;;;;5.80;99.90;;;;;;2162582;66;20260;-78
2022/03/30 00:56:16;;;;;;;;;;;5.80;99.90;;;;;;2156076;66;20697;-77
2022/03/30 00:59:01;;;;;;;;;;;5.70;99.90;;;;;;2140789;67;20199;-77
2022/03/30 01:01:45;;;;;;;;;;;5.80;99.90;;;;;;2127674;67;20594;-78
2022/03/30 01:04:34;;;;;;;;;;;5.80;99.90;;;;;;2113455;67;20282;-77
2022/03/30 01:07:20;;;;;;;;;;;6.00;99.90;;;;;;2116834;67;20116;-78
2022/03/30 01:10:07;;;;;;;;;;;5.80;99.90;;;;;;2128120;67;20082;-78
2022/03/30 01:12:54;;;;;;;;;;;5.80;99.90;;;;;;2128062;67;20690;-78
2022/03/30 01:15:36;;;;;;;;;;;5.90;99.90;;;;;;2127509;67;20509;-78
2022/03/30 01:18:17;;;;;;;;;;;5.90;99.90;;;;;;2130909;67;20142;-78
2022/03/30 01:20:59;;;;;;;;;;;5.90;99.90;;;;;;2132742;67;20189;-78
2022/03/30 01:23:40;;;;;;;;;;;5.80;99.90;;;;;;2121048;67;20172;-79
2022/03/30 01:26:23;;;;;;;;;;;5.90;99.90;;;;;;2108062;67;20740;-78
2022/03/30 01:32:25;;;;;;;;;;;5.90;99.90;;;;;;2118712;67;20136;-78
2022/03/30 01:32:27;;;;;;;;;;;5.90;99.90;;;;;;2126457;67;20562;-78
2022/03/30 01:35:13;;;;;;;;;;;6.00;99.90;;;;;;2141997;66;22409;-78
2022/03/30 01:37:57;;;;;;;;;;;5.90;99.90;;;;;;2145303;66;20061;-78
2022/03/30 01:40:40;;;;;;;;;;;5.90;99.90;;;;;;2156492;66;20130;-78
2022/03/30 01:43:24;;;;;;;;;;;5.90;99.90;;;;;;2140045;67;20243;-78
2022/03/30 01:46:05;;;;;;;;;;;6.00;99.90;;;;;;2157370;66;20539;-78
2022/03/30 01:48:47;;;;;;;;;;;6.00;99.90;;;;;;2153739;66;20604;-78
2022/03/30 01:51:29;;;;;;;;;;;5.90;99.90;;;;;;2152832;66;20291;-78
2022/03/30 01:54:12;;;;;;;;;;;5.90;99.90;;;;;;2146773;66;20053;-78
2022/03/30 01:56:57;;;;;;;;;;;5.80;99.90;;;;;;2141129;65;20142;-79
2022/03/30 01:59:42;;;;;;;;;;;5.80;99.90;;;;;;2171864;65;20069;-78
2022/03/30 02:02:24;;;;;;;;;;;5.90;99.90;;;;;;2166481;66;20274;-79
2022/03/30 02:05:06;;;;;;;;;;;5.80;99.90;;;;;;2162770;66;20116;-78
2022/03/30 02:07:50;;;;;;;;;;;5.90;99.90;;;;;;2138194;66;20106;-79
2022/03/30 02:10:32;;;;;;;;;;;5.80;99.90;;;;;;2148684;66;20169;-77
2022/03/30 02:13:15;;;;;;;;;;;5.80;99.90;;;;;;2105110;67;20195;-77
2022/03/30 02:15:59;;;;;;;;;;;5.80;99.90;;;;;;2137405;66;20160;-78
2022/03/30 02:18:41;;;;;;;;;;;5.80;99.90;;;;;;2154010;66;20223;-77
2022/03/30 02:21:24;;;;;;;;;;;5.80;99.90;;;;;;1930177;65;15840579;-78
2022/03/30 02:24:07;;;;;;;;;;;5.80;99.90;;;;;;2169417;66;20121;-78
2022/03/30 02:26:51;;;;;;;;;;;5.80;99.90;;;;;;2157297;66;20142;-77
2022/03/30 02:29:34;;;;;;;;;;;5.00;99.90;;;;;;2133160;67;20216;-78
2022/03/30 02:32:16;;;;;;;;;;;5.90;99.90;;;;;;2135889;66;20341;-78
2022/03/30 02:35:00;;;;;;;;;;;5.90;99.90;;;;;;2147382;66;20256;-78
2022/03/30 02:37:45;;;;;;;;;;;5.90;99.90;;;;;;2162321;66;20061;-78
2022/03/30 02:40:29;;;;;;;;;;;6.00;99.90;;;;;;2139640;66;20197;-77
2022/03/30 02:43:16;;;;;;;;;;;6.00;99.90;;;;;;2132667;67;20157;-78
2022/03/30 02:46:00;;;;;;;;;;;6.00;99.90;;;;;;2147545;66;20074;-78
2022/03/30 02:48:42;;;;;;;;;;;6.10;99.90;;;;;;2160880;66;20181;-78
2022/03/30 02:51:27;;;;;;;;;;;6.10;99.90;;;;;;2168392;65;20213;-78
2022/03/30 02:54:10;;;;;;;;;;;6.10;99.90;;;;;;2169224;66;20181;-77
2022/03/30 02:56:55;;;;;;;;;;;6.10;99.90;;;;;;2147160;66;20117;-77
2022/03/30 02:59:36;;;;;;;;;;;6.20;99.90;;;;;;2140728;66;20129;-78
2022/03/30 03:02:19;;;;;;;;;;;6.10;99.90;;;;;;2155145;66;20153;-77
2022/03/30 03:05:00;;;;;;;;;;;6.10;99.90;;;;;;2154277;66;20061;-78
2022/03/30 03:07:47;;;;;;;;;;;6.10;99.90;;;;;;2153823;66;20081;-77
2022/03/30 03:10:32;;;;;;;;;;;6.10;99.90;;;;;;2153710;66;20137;-78
2022/03/30 03:13:16;;;;;;;;;;;6.10;99.90;;;;;;2154040;66;20113;-78
2022/03/30 03:15:56;;;;;;;;;;;6.10;99.90;;;;;;2162343;66;20479;-79
2022/03/30 03:18:38;;;;;;;;;;;6.10;99.90;;;;;;2165009;66;20100;-77
2022/03/30 03:21:20;;;;;;;;;;;6.10;99.90;;;;;;2171266;65;20194;-77
2022/03/30 03:24:02;;;;;;;;;;;6.40;99.90;;;;;;2166245;65;20079;-79
2022/03/30 03:26:44;;;;;;;;;;;6.20;99.90;;;;;;2154215;66;20050;-78
2022/03/30 03:29:26;;;;;;;;;;;6.10;99.90;;;;;;2143326;66;20158;-78
2022/03/30 03:32:09;;;;;;;;;;;6.10;99.90;;;;;;2142764;67;20062;-77
2022/03/30 03:34:53;;;;;;;;;;;6.10;99.90;;;;;;2149970;66;20562;-77
2022/03/30 03:37:38;;;;;;;;;;;6.10;99.90;;;;;;2141711;67;20153;-77
2022/03/30 03:40:19;;;;;;;;;;;6.10;99.90;;;;;;2133727;67;20052;-78
2022/03/30 03:43:05;;;;;;;;;;;6.00;99.90;;;;;;2114254;67;20179;-77
2022/03/30 03:45:50;;;;;;;;;;;6.00;99.90;;;;;;2112660;67;20501;-79
2022/03/30 03:48:31;;;;;;;;;;;6.60;99.90;;;;;;2090286;68;20063;-79
2022/03/30 03:51:14;;;;;;;;;;;5.80;99.90;;;;;;2090852;68;20197;-77
2022/03/30 03:53:58;;;;;;;;;;;5.80;99.90;;;;;;2091774;67;20070;-77
2022/03/30 03:56:47;;;;;;;;;;;5.80;99.90;;;;;;2106973;67;20131;-78
2022/03/30 03:59:31;;;;;;;;;;;5.70;99.90;;;;;;2114695;67;20187;-77
2022/03/30 04:02:13;;;;;;;;;;;5.70;99.90;;;;;;2132287;67;20512;-77
2022/03/30 04:04:55;;;;;;;;;;;5.70;99.90;;;;;;2113690;67;20132;-78
2022/03/30 04:07:39;;;;;;;;;;;5.60;99.90;;;;;;2125217;67;20080;-77
2022/03/30 04:10:24;;;;;;;;;;;5.60;99.90;;;;;;2125626;67;20073;-78
2022/03/30 04:13:06;;;;;;;;;;;5.60;99.90;;;;;;2118014;67;20253;-77
2022/03/30 04:15:51;;;;;;;;;;;5.60;99.90;;;;;;2131372;67;20507;-78
2022/03/30 04:18:32;;;;;;;;;;;5.60;99.90;;;;;;2117571;66;20132;-77
2022/03/30 04:21:14;;;;;;;;;;;5.60;99.90;;;;;;2148079;66;20239;-77
2022/03/30 04:23:57;;;;;;;;;;;5.50;99.90;;;;;;2147401;66;20067;-78
2022/03/30 04:26:45;;;;;;;;;;;5.40;99.90;;;;;;2169480;66;20201;-77
2022/03/30 04:29:28;;;;;;;;;;;6.10;99.90;;;;;;2170583;65;20641;-78
2022/03/30 04:32:07;;;;;;;;;;;5.20;99.90;;;;;;2170070;65;20078;-77
2022/03/30 04:34:44;;;;;;;;;;;5.10;99.90;;;;;;2169704;66;20061;-78
2022/03/30 04:37:24;;;;;;;;;;;5.50;99.90;;;;;;2142933;66;20086;-79
2022/03/30 04:40:04;;;;;;;;;;;4.90;99.90;;;;;;2146561;66;20045;-77
2022/03/30 04:42:40;;;;;;;;;;;4.90;99.90;;;;;;2149250;66;20065;-77
2022/03/30 04:45:17;;;;;;;;;;;4.80;99.90;;;;;;2147071;66;20066;-77
2022/03/30 04:47:54;;;;;;;;;;;4.80;99.90;;;;;;2115735;66;20748;-78
2022/03/30 04:50:32;;;;;;;;;;;4.80;99.90;;;;;;2137764;65;20109;-78
2022/03/30 04:53:22;;;;;;;;;;;4.80;99.90;;;;;;2136088;66;20064;-77
2022/03/30 04:56:12;;;;;;;;;;;4.70;99.90;;;;;;2156598;66;20557;-78
2022/03/30 04:58:49;;;;;;;;;;;4.60;99.90;;;;;;2141110;65;20111;-77
2022/03/30 05:01:27;;;;;;;;;;;4.60;99.90;;;;;;2154698;65;20164;-77
2022/03/30 05:04:10;;;;;;;;;;;4.60;99.90;;;;;;2163887;65;20060;-78
2022/03/30 05:06:49;;;;;;;;;;;4.50;99.90;;;;;;2169753;65;20732;-78
2022/03/30 05:09:28;;;;;;;;;;;4.50;99.90;;;;;;2170172;65;20070;-77
2022/03/30 05:12:05;;;;;;;;;;;4.40;99.90;;;;;;2170847;65;20162;-78
2022/03/30 05:14:59;;;;;;;;;;;4.40;99.90;;;;;;2212271;64;20082;-78
2022/03/30 05:17:45;;;;;;;;;;;4.30;99.90;;;;;;2216031;64;20147;-77
2022/03/30 05:20:24;;;;;;;;;;;4.30;99.90;;;;;;2226635;64;20068;-78
2022/03/30 05:23:02;;;;;;;;;;;4.30;99.90;;;;;;2220918;64;20048;-78
2022/03/30 05:25:39;;;;;;;;;;;4.30;99.90;;;;;;2223293;64;20091;-78
2022/03/30 05:28:16;;;;;;;;;;;4.20;99.90;;;;;;2218830;64;20082;-77
2022/03/30 05:30:53;;;;;;;;;;;4.20;99.90;;;;;;2193655;64;20222;-78
2022/03/30 05:33:35;;;;;;;;;;;4.20;99.90;;;;;;2214635;64;20542;-77
2022/03/30 05:36:18;;;;;;;;;;;4.20;99.90;;;;;;2207642;65;20574;-78
2022/03/30 05:39:02;;;;;;;;;;;4.20;99.90;;;;;;2185075;65;20194;-78
2022/03/30 05:41:44;;;;;;;;;;;4.20;99.90;;;;;;2164103;66;20387;-79
2022/03/30 05:44:26;;;;;;;;;;;4.20;99.90;;;;;;2156320;65;20212;-78
2022/03/30 05:47:10;;;;;;;;;;;4.20;99.90;;;;;;2146743;66;20191;-77
2022/03/30 05:49:52;;;;;;;;;;;4.20;99.90;;;;;;2154050;66;20142;-78
2022/03/30 05:52:34;;;;;;;;;;;4.20;99.90;;;;;;2147046;66;20740;-76
2022/03/30 05:55:16;;;;;;;;;;;4.20;99.90;;;;;;2140777;66;20199;-77
2022/03/30 05:58:02;;;;;;;;;;;4.20;99.90;;;;;;2132553;67;20234;-77
2022/03/30 06:00:44;;;;;;;;;;;4.20;99.90;;;;;;2123779;66;20194;-78
2022/03/30 06:03:25;;;;;;;;;;;4.20;99.90;;;;;;2155190;66;20173;-78
2022/03/30 06:06:06;;;;;;;;;;;4.30;99.90;;;;;;2155093;66;20053;-78
2022/03/30 06:08:49;;;;;;;;;;;4.60;99.90;;;;;;2161542;66;20307;-78
2022/03/30 06:11:32;;;;;;;;;;;4.40;99.90;;;;;;2147094;66;20119;-77
2022/03/30 06:14:16;;;;;;;;;;;4.40;99.90;;;;;;2134212;67;20157;-78
2022/03/30 06:16:57;;;;;;;;;;;4.40;99.90;;;;;;2139805;66;20287;-78
2022/03/30 06:19:40;;;;;;;;;;;4.50;99.90;;;;;;2132640;67;20075;-78
2022/03/30 06:22:23;;;;;;;;;;;4.50;99.90;;;;;;2130496;67;20211;-77
2022/03/30 06:25:27;;;;;;;;;;;4.50;99.90;;;;;;2138145;67;20047;-78
2022/03/30 06:28:09;;;;;;;;;;;4.60;99.90;;;;;;2139165;67;20106;-78
2022/03/30 06:30:50;;;;;;;;;;;4.60;99.90;;;;;;2124988;67;20171;-78
2022/03/30 06:33:36;;;;;;;;;;;4.60;99.90;;;;;;2111035;67;20134;-78
2022/03/30 06:36:18;;;;;;;;;;;4.70;99.90;;;;;;2110976;67;20069;-78
2022/03/30 06:39:00;;;;;;;;;;;4.70;99.90;;;;;;2111638;67;20204;-77
2022/03/30 06:41:44;;;;;;;;;;;4.80;99.90;;;;;;2105368;67;20050;-78
2022/03/30 06:44:26;;;;;;;;;;;4.90;99.90;;;;;;2097926;68;20043;-76
2022/03/30 06:47:09;;;;;;;;;;;5.40;99.90;;;;;;2103178;67;20127;-78
2022/03/30 06:49:55;;;;;;;;;;;5.10;99.90;;;;;;2111973;67;20096;-77
2022/03/30 06:52:32;;;;;;;;;;;5.20;99.90;;;;;;2111677;67;20079;-78
2022/03/30 06:55:03;;;;;;;;;;;5.20;99.90;;;;;;2118947;67;20077;-78
2022/03/30 06:57:33;;;;;;;;;;;5.30;99.90;;;;;;2134460;67;20079;-79
2022/03/30 07:00:03;;;;;;;;;;;5.40;99.90;;;;;;2154028;66;20267;-77
2022/03/30 07:02:33;;;;;;;;;;;5.40;99.90;;;;;;2158123;66;20071;-77
2022/03/30 07:05:23;;;;;;;;;;;5.50;99.90;;;;;;2144961;66;20086;-76
2022/03/30 07:10:53;;;;;;;;;;;5.60;99.90;;;;;;2155907;66;20133;-78
2022/03/30 07:13:29;;;;;;;;;;;5.60;99.90;;;;;;2162220;65;20046;-78
2022/03/30 07:16:21;;;;;;;;;;;5.70;99.90;;;;;;2135376;66;20502;-78
2022/03/30 07:18:59;;;;;;;;;;;5.80;99.90;;;;;;2143857;66;20072;-78
2022/03/30 07:21:35;;;;;;;;;;;5.90;99.90;;;;;;2158974;65;20537;-77
2022/03/30 07:24:15;;;;;;;;;;;5.90;99.90;;;;;;2172061;65;20189;-78
2022/03/30 07:26:53;;;;;;;;;;;6.50;99.90;;;;;;2182970;65;20499;-78
2022/03/30 07:29:29;;;;;;;;;;;6.10;99.90;;;;;;2185094;64;20069;-78
2022/03/30 07:32:10;;;;;;;;;;;6.30;99.90;;;;;;2185378;65;20065;-79
2022/03/30 07:34:49;;;;;;;;;;;6.30;99.90;;;;;;2183795;64;20114;-78
2022/03/30 07:37:25;;;;;;;;;;;6.40;99.90;;;;;;2185349;64;20088;-79
2022/03/30 07:40:06;;;;;;;;;;;6.50;99.90;;;;;;2184331;65;20063;-81
2022/03/30 07:42:43;;;;;;;;;;;6.60;99.90;;;;;;2185514;64;20088;-77
2022/03/30 07:45:24;;;;;;;;;;;6.60;99.90;;;;;;2185860;64;20471;-78
2022/03/30 07:48:02;;;;;;;;;;;6.70;99.90;;;;;;2191511;65;20095;-80
2022/03/30 07:50:44;;;;;;;;;;;6.80;99.90;;;;;;2184683;65;20154;-78
2022/03/30 07:53:25;;;;;;;;;;;6.90;99.90;;;;;;2177176;65;20474;-78
2022/03/30 07:56:10;;;;;;;;;;;7.00;99.90;;;;;;2176682;65;20169;-78
2022/03/30 07:58:53;;;;;;;;;;;7.10;99.90;;;;;;2166897;65;20053;-78
2022/03/30 08:01:35;;;;;;;;;;;7.20;99.90;;;;;;2185912;65;20071;-77
2022/03/30 08:04:17;;;;;;;;;;;7.40;99.90;;;;;;2178123;65;20136;-76
2022/03/30 08:07:01;;;;;;;;;;;7.50;99.90;;;;;;2164191;66;21928;-75
2022/03/30 08:09:43;;;;;;;;;;;7.50;99.90;;;;;;2157813;66;20201;-78
2022/03/30 08:12:25;;;;;;;;;;;7.40;99.90;;;;;;2156756;66;20191;-76
2022/03/30 08:15:06;;;;;;;;;;;7.30;99.90;;;;;;2149237;66;20138;-79
2022/03/30 08:17:54;;;;;;;;;;;7.20;99.90;;;;;;2146540;66;20066;-79
2022/03/30 08:23:40;;;;;;;;;;;7.10;99.90;;;;;;2126819;67;20089;-80
2022/03/30 08:26:21;;;;;;;;;;;7.10;99.90;;;;;;2121480;67;20089;-78
2022/03/30 08:29:03;;;;;;;;;;;7.10;99.90;;;;;;2113339;67;20125;-77
2022/03/30 08:31:48;;;;;;;;;;;7.20;99.90;;;;;;2100393;67;20299;-79
2022/03/30 08:34:29;;;;;;;;;;;7.30;99.90;;;;;;2096032;68;20262;-77
2022/03/30 08:37:12;;;;;;;;;;;7.40;99.90;;;;;;2115188;67;20240;-79
2022/03/30 08:39:55;;;;;;;;;;;7.50;99.90;;;;;;2113108;67;20167;-78
2022/03/30 08:42:40;;;;;;;;;;;7.80;99.90;;;;;;2118533;67;20295;-79
2022/03/30 08:45:22;;;;;;;;;;;7.60;99.90;;;;;;2113911;67;20452;-79
2022/03/30 08:48:05;;;;;;;;;;;7.70;99.90;;;;;;2110915;67;20213;-76
2022/03/30 08:50:47;;;;;;;;;;;7.80;99.90;;;;;;2106326;67;20149;-78
2022/03/30 08:53:34;;;;;;;;;;;7.70;99.90;;;;;;2131356;66;20212;-79
2022/03/30 08:56:21;;;;;;;;;;;8.20;99.90;;;;;;2154172;66;20069;-81
2022/03/30 08:59:06;;;;;;;;;;;7.90;99.90;;;;;;2155967;66;20195;-82
2022/03/30 09:01:52;;;;;;;;;;;7.80;99.90;;;;;;2164821;65;20064;-76
2022/03/30 09:04:34;;;;;;;;;;;7.80;99.90;;;;;;2168040;66;20305;-77
2022/03/30 09:07:19;;;;;;;;;;;7.90;99.90;;;;;;2159591;66;20053;-76
2022/03/30 09:10:02;;;;;;;;;;;8.00;99.90;;;;;;2153408;66;20123;-77
2022/03/30 09:12:49;;;;;;;;;;;8.00;99.90;;;;;;2140276;66;20114;-77
2022/03/30 09:15:33;;;;;;;;;;;8.20;99.90;;;;;;2141390;66;20149;-77
2022/03/30 09:18:17;;;;;;;;;;;8.30;99.90;;;;;;2161738;65;20223;-77
2022/03/30 09:21:01;;;;;;;;;;;8.40;99.90;;;;;;2176689;65;20147;-78
2022/03/30 09:23:46;;;;;;;;;;;8.50;99.90;;;;;;2171713;65;20318;-80
2022/03/30 09:26:27;;;;;;;;;;;8.50;99.90;;;;;;2161379;66;20201;-80
2022/03/30 09:29:09;;;;;;;;;;;8.50;99.90;;;;;;2148177;66;20121;-80
2022/03/30 09:31:51;;;;;;;;;;;8.40;99.90;;;;;;2168845;66;20053;-83
2022/03/30 09:34:34;;;;;;;;;;;8.40;99.90;;;;;;2171276;66;20123;-82
2022/03/30 09:37:13;;;;;;;;;;;8.50;99.60;;;;;;2169886;65;20924;-81
2022/03/30 09:39:53;;;;;;;;;;;8.50;98.90;;;;;;2178351;65;20119;-79
2022/03/30 09:42:29;;;;;;;;;;;8.50;99.00;;;;;;2167889;65;20106;-76
2022/03/30 09:45:06;;;;;;;;;;;8.50;97.20;;;;;;2133348;66;20071;-75
2022/03/30 09:47:44;;;;;;;;;;;8.50;98.30;;;;;;2150457;66;20668;-79
2022/03/30 09:50:27;;;;;;;;;;;8.50;97.10;;;;;;2148125;65;20133;-79
2022/03/30 09:53:09;;;;;;;;;;;8.50;98.20;;;;;;2143668;65;20064;-80
2022/03/30 09:55:57;;;;;;;;;;;8.60;98.30;;;;;;2139731;66;20144;-81
2022/03/30 09:58:36;;;;;;;;;;;8.70;96.80;;;;;;2148236;65;20138;-82
2022/03/30 10:01:29;;;;;;;;;;;8.70;97.40;;;;;;2171793;65;20069;-78
2022/03/30 10:04:09;;;;;;;;;;;8.80;96.10;;;;;;2168642;65;20224;-79
2022/03/30 10:06:44;;;;;;;;;;;8.80;97.00;;;;;;2180821;64;20043;-79
2022/03/30 10:09:47;;;;;;;;;;;8.80;96.20;;;;;;2180892;65;20522;-87
2022/03/30 10:12:26;;;;;;;;;;;8.80;96.90;;;;;;2183637;65;20076;-81
2022/03/30 10:15:03;;;;;;;;;;;8.90;96.90;;;;;;2183981;65;20327;-81
2022/03/30 10:17:45;;;;;;;;;;;8.70;96.60;;;;;;2189917;64;20140;-78
2022/03/30 10:20:23;;;;;;;;;;;9.00;96.90;;;;;;2195512;64;20630;-77
2022/03/30 10:22:55;;;;;;;;;;;9.10;96.90;;;;;;2182325;65;20068;-79
2022/03/30 10:25:53;;;;;;;;;;;9.10;97.00;;;;;;2176520;65;20150;-78
2022/03/30 10:28:40;;;;;;;;;;;9.10;96.90;;;;;;2193028;65;20220;-79
2022/03/30 10:31:23;;;;;;;;;;;9.20;97.00;;;;;;2191469;65;20130;-80
2022/03/30 10:34:29;;;;;;;;;;;9.20;96.80;;;;;;2191017;65;20146;-78
2022/03/30 10:37:13;;;;;;;;;;;9.20;95.50;;;;;;2193028;65;20151;-80
2022/03/30 10:40:02;;;;;;;;;;;9.30;96.10;;;;;;2185183;65;20085;-78
2022/03/30 10:42:56;;;;;;;;;;;9.50;96.20;;;;;;2176086;65;20551;-79
2022/03/30 10:46:02;;;;;;;;;;;9.60;94.70;;;;;;2170514;65;20059;-79
2022/03/30 10:48:54;;;;;;;;;;;9.60;94.70;;;;;;2170727;65;20048;-78
2022/03/30 10:51:44;;;;;;;;;;;9.60;95.30;;;;;;2158405;65;21001;-77
2022/03/30 10:54:31;;;;;;;;;;;9.70;94.50;;;;;;2153341;66;20203;-77
2022/03/30 10:57:34;;;;;;;;;;;9.90;93.70;;;;;;2137933;67;20147;-75
2022/03/30 11:00:28;;;;;;;;;;;9.80;91.90;;;;;;2139692;66;20078;-76
2022/03/30 11:03:21;;;;;;;;;;;9.60;92.50;;;;;;2132268;67;20241;-77
2022/03/30 11:06:11;;;;;;;;;;;9.60;91.40;;;;;;2145923;66;20174;-75
2022/03/30 11:09:18;;;;;;;;;;;9.30;90.50;;;;;;2139273;67;20134;-74
2022/03/30 11:12:17;;;;;;;;;;;9.10;91.20;;;;;;2125911;67;20148;-77
2022/03/30 11:15:04;;;;;;;;;;;9.00;90.70;;;;;;2143541;66;20154;-78
2022/03/30 11:17:48;;;;;;;;;;;8.30;89.00;;;;;;2133562;66;20292;-80
2022/03/30 11:20:33;;;;;;;;;;;9.00;90.40;;;;;;2143320;66;20074;-78
2022/03/30 11:23:24;;;;;;;;;;;8.80;90.30;;;;;;2139737;66;20199;-77
2022/03/30 11:26:10;;;;;;;;;;;9.20;86.40;;;;;;2142268;66;20560;-81
2022/03/30 11:28:59;;;;;;;;;;;9.40;85.10;;;;;;2136553;67;20579;-78
2022/03/30 11:31:47;;;;;;;;;;;9.70;90.20;;;;;;2136590;67;20095;-81
2022/03/30 11:34:36;;;;;;;;;;;10.10;90.20;;;;;;2144227;66;20080;-79
2022/03/30 11:37:26;;;;;;;;;;;10.50;87.10;;;;;;2155183;66;20071;-79
2022/03/30 11:40:17;;;;;;;;;;;10.90;83.50;;;;;;2157470;66;20065;-78
2022/03/30 11:42:59;;;;;;;;;;;11.50;84.40;;;;;;2152565;66;20225;-79
2022/03/30 11:45:40;;;;;;;;;;;12.10;78.20;;;;;;2142502;65;20219;-79
2022/03/30 11:48:36;;;;;;;;;;;12.50;81.70;;;;;;2136864;66;20143;-81
2022/03/30 11:51:25;;;;;;;;;;;13.00;79.30;;;;;;2168266;66;20191;-79
2022/03/30 11:54:10;;;;;;;;;;;13.50;72.70;;;;;;2162734;66;20109;-78
2022/03/30 11:56:51;;;;;;;;;;;14.10;72.50;;;;;;2155906;66;20082;-76
2022/03/30 11:59:36;;;;;;;;;;;14.50;74.70;;;;;;2149089;66;20128;-78
2022/03/30 12:02:19;;;;;;;;;;;14.80;73.70;;;;;;2160876;66;20085;-77
2022/03/30 12:05:00;;;;;;;;;;;15.00;65.20;;;;;;2159180;66;20154;-78
2022/03/30 12:07:45;;;;;;;;;;;15.40;72.10;;;;;;2160661;66;20259;-83
2022/03/30 12:10:31;;;;;;;;;;;15.90;68.70;;;;;;2158218;66;20113;-78
2022/03/30 12:13:24;;;;;;;;;;;15.90;63.40;;;;;;2152391;66;20094;-79
2022/03/30 12:16:13;;;;;;;;;;;15.50;62.80;;;;;;2147609;66;20239;-78
2022/03/30 12:18:56;;;;;;;;;;;15.00;63.00;;;;;;2149158;66;20269;-79
2022/03/30 12:21:40;;;;;;;;;;;14.50;60.60;;;;;;2147695;66;20066;-80
2022/03/30 12:24:32;;;;;;;;;;;14.00;62.90;;;;;;2141405;66;20067;-80
2022/03/30 12:27:08;;;;;;;;;;;13.70;63.90;;;;;;2136544;67;20245;-77
2022/03/30 12:29:44;;;;;;;;;;;13.50;63.50;;;;;;2106830;67;20090;-79
2022/03/30 12:32:23;;;;;;;;;;;13.50;63.60;;;;;;2121218;66;20609;-77
2022/03/30 12:35:10;;;;;;;;;;;13.60;61.70;;;;;;2119264;66;20101;-78
2022/03/30 12:37:50;;;;;;;;;;;13.60;63.30;;;;;;2115940;66;20073;-82
2022/03/30 12:40:45;;;;;;;;;;;13.80;61.10;;;;;;2138019;66;20570;-80
2022/03/30 12:43:26;;;;;;;;;;;14.30;61.30;;;;;;2151603;66;20062;-77
2022/03/30 12:46:18;;;;;;;;;;;14.40;61.80;;;;;;2157053;66;20422;-79
2022/03/30 12:49:02;;;;;;;;;;;13.90;61.10;;;;;;2170968;65;20119;-78
2022/03/30 12:51:33;;;;;;;;;;;13.60;60.80;;;;;;2179273;65;20263;-84
2022/03/30 12:54:22;;;;;;;;;;;13.30;59.70;;;;;;2192736;65;20057;-76
2022/03/30 12:57:00;;;;;;;;;;;13.00;60.20;;;;;;2190552;65;20244;-76
2022/03/30 12:59:41;;;;;;;;;;;12.90;61.60;;;;;;2180958;64;20219;-75
2022/03/30 13:02:34;;;;;;;;;;;14.00;62.30;;;;;;2170106;65;20061;-78
2022/03/30 13:05:21;;;;;;;;;;;15.40;60.10;;;;;;2185300;64;20134;-77
2022/03/30 13:07:57;;;;;;;;;;;16.70;60.80;;;;;;2191284;65;20088;-76
2022/03/30 13:10:50;;;;;;;;;;;18.30;53.60;;;;;;2166282;66;20227;-77
2022/03/30 13:13:30;;;;;;;;;;;19.00;56.00;;;;;;2166953;66;20151;-78
2022/03/30 13:16:06;;;;;;;;;;;19.50;56.10;;;;;;2167247;66;20068;-77
2022/03/30 13:19:01;;;;;;;;;;;19.90;50.70;;;;;;2170410;65;20222;-78
2022/03/30 13:21:41;;;;;;;;;;;19.30;53.30;;;;;;2173907;65;20091;-78
2022/03/30 13:24:18;;;;;;;;;;;18.40;49.60;;;;;;2175861;65;20052;-78
2022/03/30 13:27:00;;;;;;;;;;;17.80;51.70;;;;;;2154665;65;20688;-77
2022/03/30 13:29:43;;;;;;;;;;;17.40;51.20;;;;;;2146621;66;20258;-78
2022/03/30 13:32:25;;;;;;;;;;;16.70;50.30;;;;;;2139022;67;20186;-79
2022/03/30 13:35:09;;;;;;;;;;;16.20;51.90;;;;;;2135551;66;20104;-79
2022/03/30 13:37:57;;;;;;;;;;;16.00;52.30;;;;;;2126340;66;20692;-80
2022/03/30 13:40:38;;;;;;;;;;;16.00;51.10;;;;;;2119407;67;20126;-82
2022/03/30 13:43:23;;;;;;;;;;;16.50;52.70;;;;;;2133983;67;20113;-79
2022/03/30 13:46:19;;;;;;;;;;;16.70;51.40;;;;;;2132986;66;20222;-81
2022/03/30 13:49:08;;;;;;;;;;;16.60;52.10;;;;;;2163538;66;20073;-81
2022/03/30 13:51:57;;;;;;;;;;;16.50;50.70;;;;;;2155214;66;20090;-81
2022/03/30 13:54:44;;;;;;;;;;;16.20;51.90;;;;;;2145219;66;20109;-79
2022/03/30 13:57:38;;;;;;;;;;;16.50;51.20;;;;;;2136614;67;20171;-81
2022/03/30 14:00:39;;;;;;;;;;;16.30;52.20;;;;;;2130827;67;20137;-78
2022/03/30 14:03:34;;;;;;;;;;;16.90;51.00;;;;;;2118811;67;20242;-79
2022/03/30 14:06:18;;;;;;;;;;;17.00;50.70;;;;;;2124286;67;20276;-81
2022/03/30 14:09:23;;;;;;;;;;;17.40;51.70;;;;;;2119647;67;20338;-80
2022/03/30 14:12:13;;;;;;;;;;;18.10;51.30;;;;;;2110793;67;20674;-77
2022/03/30 14:14:58;;;;;;;;;;;17.90;51.10;;;;;;2119837;67;20182;-77
2022/03/30 14:17:57;;;;;;;;;;;18.10;48.90;;;;;;2115736;67;20281;-77
2022/03/30 14:21:04;;;;;;;;;;;17.60;50.30;;;;;;2120478;67;20077;-77
2022/03/30 14:24:02;;;;;;;;;;;17.30;50.50;;;;;;2121691;67;20212;-75
2022/03/30 14:26:47;;;;;;;;;;;16.80;49.20;;;;;;2113475;67;20431;-75
2022/03/30 14:29:30;;;;;;;;;;;16.00;49.70;;;;;;2120985;67;20178;-75
2022/03/30 14:32:16;;;;;;;;;;;15.30;50.60;;;;;;2128218;66;20059;-76
2022/03/30 14:35:03;;;;;;;;;;;14.70;51.20;;;;;;2149344;66;20629;-77
2022/03/30 14:37:46;;;;;;;;;;;14.30;51.80;;;;;;2154439;66;20668;-81
2022/03/30 14:40:33;;;;;;;;;;;14.00;52.00;;;;;;2133139;67;20076;-82
2022/03/30 14:43:16;;;;;;;;;;;13.80;52.30;;;;;;2123955;67;20092;-83
2022/03/30 14:46:00;;;;;;;;;;;13.50;51.70;;;;;;2132449;67;20313;-80
2022/03/30 14:48:50;;;;;;;;;;;13.30;52.40;;;;;;2147754;66;20194;-79
2022/03/30 14:51:35;;;;;;;;;;;13.10;52.80;;;;;;2135160;66;20093;-78
2022/03/30 14:54:22;;;;;;;;;;;12.90;53.70;;;;;;2129930;67;20095;-78
2022/03/30 14:57:03;;;;;;;;;;;12.70;52.90;;;;;;2150105;66;20113;-80
2022/03/30 14:59:45;;;;;;;;;;;12.50;53.50;;;;;;2145185;66;20084;-82
2022/03/30 15:02:28;;;;;;;;;;;12.40;53.60;;;;;;2156561;66;20086;-83
2022/03/30 15:05:15;;;;;;;;;;;12.30;54.00;;;;;;2154749;66;20077;-81
2022/03/30 15:07:57;;;;;;;;;;;12.20;54.10;;;;;;2149664;66;20531;-81
2022/03/30 15:10:38;;;;;;;;;;;12.10;55.00;;;;;;2161031;66;20229;-82
2022/03/30 15:13:20;;;;;;;;;;;12.00;54.10;;;;;;2159841;66;20277;-85
2022/03/30 15:16:02;;;;;;;;;;;12.10;54.90;;;;;;2162929;66;20521;-81
2022/03/30 15:18:43;;;;;;;;;;;11.70;55.00;;;;;;2174129;65;20249;-83
2022/03/30 15:21:25;;;;;;;;;;;11.50;55.20;;;;;;2171452;65;20262;-80
2022/03/30 15:24:07;;;;;;;;;;;11.40;55.70;;;;;;2171041;65;20112;-81
2022/03/30 15:26:50;;;;;;;;;;;11.30;55.50;;;;;;2146704;66;20095;-80
2022/03/30 15:29:35;;;;;;;;;;;11.10;55.60;;;;;;2161591;66;20084;-80
2022/03/30 15:32:16;;;;;;;;;;;10.90;56.10;;;;;;2175001;65;20224;-81
2022/03/30 15:34:58;;;;;;;;;;;10.70;56.70;;;;;;2152518;66;20117;-79
2022/03/30 15:37:40;;;;;;;;;;;10.50;56.50;;;;;;2147629;66;20050;-79
2022/03/30 15:40:23;;;;;;;;;;;10.40;57.10;;;;;;2129593;67;20712;-82
2022/03/30 15:43:14;;;;;;;;;;;10.30;57.10;;;;;;2144922;65;20090;-82
2022/03/30 15:45:55;;;;;;;;;;;10.20;57.30;;;;;;2144739;66;20092;-80
2022/03/30 15:48:37;;;;;;;;;;;10.00;57.80;;;;;;2144725;66;20074;-80
2022/03/30 15:51:19;;;;;;;;;;;10.00;57.80;;;;;;2130687;66;20179;-81
2022/03/30 15:54:03;;;;;;;;;;;9.90;57.80;;;;;;2132298;66;20548;-80
2022/03/30 15:56:45;;;;;;;;;;;9.90;57.90;;;;;;2139687;66;20220;-82
2022/03/30 15:59:27;;;;;;;;;;;9.80;58.40;;;;;;2143604;66;20119;-80
2022/03/30 16:02:09;;;;;;;;;;;9.70;58.30;;;;;;2168987;66;20080;-82
2022/03/30 16:04:51;;;;;;;;;;;9.60;58.90;;;;;;2139456;66;20297;-80
2022/03/30 16:07:34;;;;;;;;;;;9.50;59.00;;;;;;2138960;66;20075;-80
2022/03/30 16:10:21;;;;;;;;;;;9.50;59.00;;;;;;2140040;67;20628;-81